createdAt,value
2017-09-05T00:01:40.353Z,-58
2017-09-05T00:11:40.379Z,-58
2017-09-05T00:21:40.394Z,-58
2017-09-05T00:31:40.326Z,-58
2017-09-05T00:41:40.289Z,-58
2017-09-05T00:51:40.405Z,-58
2017-09-05T01:01:40.331Z,-58
2017-09-05T01:11:40.386Z,-58
2017-09-05T01:21:40.376Z,-58
2017-09-05T01:31:40.339Z,-58
2017-09-05T01:41:40.361Z,-58
2017-09-05T01:51:40.302Z,-58
2017-09-05T02:01:40.310Z,-57
2017-09-05T02:11:40.438Z,-58
2017-09-05T02:21:40.683Z,-57
2017-09-05T02:31:40.282Z,-58
2017-09-05T02:41:40.345Z,-58
2017-09-05T02:51:40.254Z,-57
2017-09-05T03:01:40.409Z,-57
2017-09-05T03:11:40.324Z,-58
2017-09-05T03:21:40.305Z,-58
2017-09-05T03:31:40.365Z,-57
2017-09-05T03:41:40.343Z,-58
2017-09-05T03:51:40.410Z,-58
2017-09-05T04:01:40.345Z,-59
2017-09-05T04:11:40.337Z,-58
2017-09-05T04:21:40.380Z,-58
2017-09-05T04:31:40.337Z,-57
2017-09-05T04:41:40.387Z,-57
2017-09-05T04:51:40.362Z,-58
2017-09-05T05:01:40.323Z,-58
2017-09-05T05:11:40.394Z,-58
2017-09-05T05:21:40.369Z,-57
2017-09-05T05:31:40.317Z,-58
2017-09-05T05:41:40.379Z,-58
2017-09-05T05:51:40.345Z,-58
2017-09-05T06:01:40.397Z,-59
2017-09-05T06:11:40.329Z,-59
2017-09-05T06:21:40.354Z,-59
2017-09-05T06:31:40.345Z,-58
2017-09-05T06:41:40.324Z,-59
2017-09-05T06:51:40.395Z,-58
2017-09-05T07:01:40.329Z,-57
2017-09-05T07:11:40.345Z,-56
2017-09-05T07:21:40.375Z,-59
2017-09-05T07:31:40.346Z,-59
2017-09-05T07:41:40.321Z,-59
2017-09-05T07:51:40.388Z,-58
2017-09-05T08:01:40.367Z,-57
2017-09-05T08:11:40.399Z,-57
2017-09-05T08:21:40.378Z,-58
2017-09-05T08:31:40.318Z,-59
2017-09-05T08:41:40.515Z,-59
2017-09-05T08:51:40.364Z,-59
2017-09-05T09:01:40.379Z,-59
2017-09-05T09:11:40.372Z,-65
2017-09-05T09:21:40.452Z,-64
2017-09-05T09:31:40.428Z,-64
2017-09-05T09:41:40.335Z,-64
2017-09-05T09:51:40.365Z,-65
2017-09-05T10:01:40.370Z,-64
2017-09-05T10:11:40.295Z,-65
2017-09-05T10:21:40.360Z,-65
2017-09-05T10:31:40.340Z,-65
2017-09-05T10:41:40.335Z,-64
2017-09-05T10:51:40.328Z,-64
2017-09-05T11:01:40.354Z,-60
2017-09-05T11:11:40.338Z,-61
2017-09-05T11:21:40.394Z,-65
2017-09-05T11:31:40.337Z,-64
2017-09-05T11:41:40.369Z,-60
2017-09-05T11:51:40.322Z,-60
2017-09-05T12:01:40.329Z,-61
2017-09-05T12:11:40.340Z,-61
2017-09-05T12:21:40.349Z,-61
2017-09-05T12:31:40.887Z,-62
2017-09-05T12:41:40.349Z,-62
2017-09-05T12:51:41.036Z,-63
2017-09-05T13:01:40.389Z,-63
2017-09-05T13:11:40.384Z,-61
2017-09-05T13:21:40.350Z,-60
2017-09-05T13:31:40.405Z,-62
2017-09-05T13:41:40.414Z,-64
2017-09-05T13:51:40.736Z,-67
2017-09-05T14:01:40.487Z,-67
2017-09-05T14:11:40.500Z,-69
2017-09-05T14:21:40.545Z,-69
2017-09-05T14:31:40.480Z,-60
2017-09-05T14:41:40.471Z,-61
2017-09-05T14:51:40.487Z,-68
2017-09-05T15:01:40.376Z,-62
2017-09-05T15:11:40.550Z,-62
2017-09-05T15:21:40.472Z,-63
2017-09-05T15:31:40.602Z,-66
2017-09-05T15:41:40.499Z,-60
2017-09-05T15:51:40.567Z,-66
2017-09-05T16:01:40.692Z,-72
2017-09-05T16:11:40.491Z,-61
2017-09-05T16:21:40.538Z,-60
2017-09-05T16:31:40.598Z,-69
2017-09-05T16:41:40.493Z,-67
2017-09-05T16:51:40.919Z,-69
2017-09-05T17:01:40.484Z,-61
2017-09-05T17:11:40.533Z,-63
2017-09-05T17:21:40.506Z,-64
2017-09-05T17:31:40.434Z,-63
2017-09-05T17:41:40.518Z,-65
2017-09-05T17:51:40.548Z,-68
2017-09-05T18:01:40.589Z,-66
2017-09-05T18:11:40.547Z,-59
2017-09-05T18:21:41.147Z,-64
2017-09-05T18:31:40.817Z,-60
2017-09-05T18:41:41.652Z,-58
2017-09-05T18:51:42.165Z,-57
2017-09-05T19:01:43.563Z,-65
2017-09-05T19:11:41.722Z,-60
2017-09-05T19:21:40.573Z,-58
2017-09-05T19:31:40.541Z,-57
2017-09-05T19:41:40.480Z,-58
2017-09-05T19:51:54.022Z,-57
2017-09-05T20:01:56.248Z,-63
2017-09-05T20:11:42.931Z,-64
2017-09-05T20:21:54.125Z,-63
2017-09-05T20:31:55.325Z,-64
2017-09-05T20:41:53.292Z,-65
2017-09-05T20:51:40.493Z,-64
2017-09-05T21:01:40.617Z,-63
2017-09-05T21:11:40.515Z,-64
2017-09-05T21:21:40.541Z,-63
2017-09-05T21:31:40.512Z,-63
2017-09-05T21:41:40.499Z,-67
2017-09-05T21:51:40.576Z,-67
2017-09-05T22:01:40.491Z,-67
2017-09-05T22:11:40.522Z,-60
2017-09-05T22:21:40.586Z,-60
2017-09-05T22:31:40.473Z,-60
2017-09-05T22:41:40.573Z,-60
2017-09-05T22:51:40.532Z,-60
2017-09-05T23:01:40.473Z,-59
2017-09-05T23:11:40.514Z,-60
2017-09-05T23:21:40.508Z,-60
2017-09-05T23:31:40.547Z,-59
2017-09-05T23:41:40.524Z,-59
2017-09-05T23:51:40.480Z,-60
